Terminal Aerodrome Forecast
Issued by NWS

Home | Current Version | Previous Version | Text Only | Print | Product List | Glossary On
Versions: 1 2 3 4 5 6 7 8 9 10 11 12 13 14 15 16 17 18 19
816
FTUS42 KTBW 011748
TAFPGD
TAF
KPGD 011748Z 0118/0218 18008KT P6SM FEW030 FEW250
     FM020000 24005KT P6SM SCT040 SCT250
     FM020700 VRB03KT 5SM BR SCT010 SCT020
     FM020900 00000KT 1SM BR SCT010 BKN020
     FM021300 00000KT 3SM BR SCT010 BKN020
     FM021500 VRB03KT P6SM SCT025 BKN040
     FM021700 27005KT P6SM SCT030 BKN100=

USA.gov is the U.S. government's official web portal to all federal, state and local government web resources and services.